sensor_id;sensor_type;location;lat;lon;timestamp;P1;durP1;ratioP1;P2;durP2;ratioP2
15996;SDS011;8103;51.340;12.326;2023-02-04T00:01:08;1.30;;;0.82;;
15996;SDS011;8103;51.340;12.326;2023-02-04T00:03:36;2.17;;;1.35;;
15996;SDS011;8103;51.340;12.326;2023-02-04T00:06:06;1.83;;;0.93;;
15996;SDS011;8103;51.340;12.326;2023-02-04T00:08:34;3.35;;;1.67;;
15996;SDS011;8103;51.340;12.326;2023-02-04T00:11:03;5.00;;;2.42;;
15996;SDS011;8103;51.340;12.326;2023-02-04T00:13:36;3.28;;;1.20;;
15996;SDS011;8103;51.340;12.326;2023-02-04T00:16:03;2.88;;;1.17;;
15996;SDS011;8103;51.340;12.326;2023-02-04T00:18:31;2.05;;;1.60;;
15996;SDS011;8103;51.340;12.326;2023-02-04T00:25:06;3.65;;;1.30;;
15996;SDS011;8103;51.340;12.326;2023-02-04T00:27:34;1.30;;;0.77;;
15996;SDS011;8103;51.340;12.326;2023-02-04T00:30:01;3.88;;;1.35;;
15996;SDS011;8103;51.340;12.326;2023-02-04T00:32:30;2.95;;;1.30;;
15996;SDS011;8103;51.340;12.326;2023-02-04T00:34:57;2.97;;;1.23;;
15996;SDS011;8103;51.340;12.326;2023-02-04T00:37:24;2.33;;;1.33;;
15996;SDS011;8103;51.340;12.326;2023-02-04T00:39:52;1.00;;;0.88;;
15996;SDS011;8103;51.340;12.326;2023-02-04T00:42:20;2.67;;;1.02;;
15996;SDS011;8103;51.340;12.326;2023-02-04T00:44:47;1.40;;;0.93;;
15996;SDS011;8103;51.340;12.326;2023-02-04T00:51:19;2.50;;;1.42;;
15996;SDS011;8103;51.340;12.326;2023-02-04T00:53:46;3.28;;;1.08;;
15996;SDS011;8103;51.340;12.326;2023-02-04T00:56:16;2.67;;;1.10;;
15996;SDS011;8103;51.340;12.326;2023-02-04T01:02:55;1.17;;;1.02;;
15996;SDS011;8103;51.340;12.326;2023-02-04T01:05:34;0.90;;;0.85;;
15996;SDS011;8103;51.340;12.326;2023-02-04T01:08:01;1.27;;;0.70;;
15996;SDS011;8103;51.340;12.326;2023-02-04T01:10:28;2.92;;;1.20;;
15996;SDS011;8103;51.340;12.326;2023-02-04T01:12:59;1.02;;;0.77;;
15996;SDS011;8103;51.340;12.326;2023-02-04T01:15:26;1.30;;;1.05;;
15996;SDS011;8103;51.340;12.326;2023-02-04T01:17:54;1.85;;;1.10;;
15996;SDS011;8103;51.340;12.326;2023-02-04T01:20:21;0.77;;;0.57;;
15996;SDS011;8103;51.340;12.326;2023-02-04T01:22:48;1.77;;;1.00;;
15996;SDS011;8103;51.340;12.326;2023-02-04T01:25:15;1.30;;;1.00;;
15996;SDS011;8103;51.340;12.326;2023-02-04T01:27:42;1.55;;;0.90;;
15996;SDS011;8103;51.340;12.326;2023-02-04T01:30:12;1.90;;;0.90;;
15996;SDS011;8103;51.340;12.326;2023-02-04T01:32:42;1.60;;;1.13;;
15996;SDS011;8103;51.340;12.326;2023-02-04T01:35:09;2.05;;;1.17;;
15996;SDS011;8103;51.340;12.326;2023-02-04T01:37:36;2.53;;;0.95;;
15996;SDS011;8103;51.340;12.326;2023-02-04T01:40:03;2.53;;;1.23;;
15996;SDS011;8103;51.340;12.326;2023-02-04T01:42:31;1.92;;;1.30;;
15996;SDS011;8103;51.340;12.326;2023-02-04T01:44:58;2.67;;;0.95;;
15996;SDS011;8103;51.340;12.326;2023-02-04T01:47:25;4.00;;;1.27;;
15996;SDS011;8103;51.340;12.326;2023-02-04T01:49:52;1.88;;;1.08;;
15996;SDS011;8103;51.340;12.326;2023-02-04T01:52:21;1.33;;;1.08;;
15996;SDS011;8103;51.340;12.326;2023-02-04T01:54:50;3.65;;;1.13;;
15996;SDS011;8103;51.340;12.326;2023-02-04T01:57:18;3.20;;;1.13;;
15996;SDS011;8103;51.340;12.326;2023-02-04T01:59:46;1.05;;;0.82;;
15996;SDS011;8103;51.340;12.326;2023-02-04T02:02:40;1.13;;;1.02;;
15996;SDS011;8103;51.340;12.326;2023-02-04T02:05:12;3.53;;;1.23;;
15996;SDS011;8103;51.340;12.326;2023-02-04T02:07:47;1.17;;;1.02;;
15996;SDS011;8103;51.340;12.326;2023-02-04T02:10:18;1.55;;;1.15;;
15996;SDS011;8103;51.340;12.326;2023-02-04T02:12:46;1.85;;;1.00;;
15996;SDS011;8103;51.340;12.326;2023-02-04T02:15:15;3.72;;;1.27;;
15996;SDS011;8103;51.340;12.326;2023-02-04T02:17:43;3.53;;;1.30;;
15996;SDS011;8103;51.340;12.326;2023-02-04T02:20:12;2.53;;;1.27;;
15996;SDS011;8103;51.340;12.326;2023-02-04T02:22:45;1.67;;;1.10;;
15996;SDS011;8103;51.340;12.326;2023-02-04T02:25:43;1.10;;;1.00;;
15996;SDS011;8103;51.340;12.326;2023-02-04T02:28:12;2.28;;;1.05;;
15996;SDS011;8103;51.340;12.326;2023-02-04T02:30:44;1.70;;;0.82;;
15996;SDS011;8103;51.340;12.326;2023-02-04T02:33:15;1.23;;;0.80;;
15996;SDS011;8103;51.340;12.326;2023-02-04T02:35:45;1.88;;;0.80;;
15996;SDS011;8103;51.340;12.326;2023-02-04T02:38:16;3.97;;;1.50;;
15996;SDS011;8103;51.340;12.326;2023-02-04T02:40:47;5.07;;;2.08;;
15996;SDS011;8103;51.340;12.326;2023-02-04T02:43:16;2.97;;;1.38;;
15996;SDS011;8103;51.340;12.326;2023-02-04T02:45:47;2.88;;;2.28;;
15996;SDS011;8103;51.340;12.326;2023-02-04T02:48:16;1.92;;;1.15;;
15996;SDS011;8103;51.340;12.326;2023-02-04T02:50:43;1.83;;;1.73;;
15996;SDS011;8103;51.340;12.326;2023-02-04T02:53:11;2.10;;;1.15;;
15996;SDS011;8103;51.340;12.326;2023-02-04T02:55:42;1.92;;;1.42;;
15996;SDS011;8103;51.340;12.326;2023-02-04T02:58:14;2.28;;;1.20;;
15996;SDS011;8103;51.340;12.326;2023-02-04T03:01:03;2.03;;;1.83;;
15996;SDS011;8103;51.340;12.326;2023-02-04T03:03:34;1.42;;;1.05;;
15996;SDS011;8103;51.340;12.326;2023-02-04T03:06:16;1.95;;;1.00;;
15996;SDS011;8103;51.340;12.326;2023-02-04T03:08:49;3.15;;;1.20;;
15996;SDS011;8103;51.340;12.326;2023-02-04T03:11:21;0.85;;;0.80;;
15996;SDS011;8103;51.340;12.326;2023-02-04T03:13:49;1.48;;;0.88;;
15996;SDS011;8103;51.340;12.326;2023-02-04T03:16:18;1.33;;;1.10;;
15996;SDS011;8103;51.340;12.326;2023-02-04T03:18:45;2.33;;;1.00;;
15996;SDS011;8103;51.340;12.326;2023-02-04T03:21:13;3.85;;;1.35;;
15996;SDS011;8103;51.340;12.326;2023-02-04T03:23:41;1.25;;;1.00;;
15996;SDS011;8103;51.340;12.326;2023-02-04T03:26:08;2.28;;;1.00;;
15996;SDS011;8103;51.340;12.326;2023-02-04T03:28:38;1.77;;;1.13;;
15996;SDS011;8103;51.340;12.326;2023-02-04T03:31:06;1.45;;;0.80;;
15996;SDS011;8103;51.340;12.326;2023-02-04T03:33:34;2.13;;;1.05;;
15996;SDS011;8103;51.340;12.326;2023-02-04T03:36:01;2.40;;;1.00;;
15996;SDS011;8103;51.340;12.326;2023-02-04T03:38:27;2.80;;;1.27;;
15996;SDS011;8103;51.340;12.326;2023-02-04T03:40:54;1.73;;;0.80;;
15996;SDS011;8103;51.340;12.326;2023-02-04T03:43:21;1.70;;;1.15;;
15996;SDS011;8103;51.340;12.326;2023-02-04T03:45:48;1.48;;;0.93;;
15996;SDS011;8103;51.340;12.326;2023-02-04T03:48:15;1.83;;;1.02;;
15996;SDS011;8103;51.340;12.326;2023-02-04T03:50:42;1.23;;;1.13;;
15996;SDS011;8103;51.340;12.326;2023-02-04T03:53:09;1.15;;;0.98;;
15996;SDS011;8103;51.340;12.326;2023-02-04T03:55:36;1.30;;;1.10;;
15996;SDS011;8103;51.340;12.326;2023-02-04T03:58:03;1.27;;;0.90;;
15996;SDS011;8103;51.340;12.326;2023-02-04T04:00:31;2.53;;;1.20;;
15996;SDS011;8103;51.340;12.326;2023-02-04T04:02:59;1.20;;;1.10;;
15996;SDS011;8103;51.340;12.326;2023-02-04T04:05:27;1.88;;;0.98;;
15996;SDS011;8103;51.340;12.326;2023-02-04T04:07:54;1.33;;;1.10;;
15996;SDS011;8103;51.340;12.326;2023-02-04T04:10:21;1.52;;;1.13;;
15996;SDS011;8103;51.340;12.326;2023-02-04T04:12:48;4.97;;;1.30;;
15996;SDS011;8103;51.340;12.326;2023-02-04T04:15:15;4.65;;;1.08;;
15996;SDS011;8103;51.340;12.326;2023-02-04T04:17:43;1.98;;;0.82;;
15996;SDS011;8103;51.340;12.326;2023-02-04T04:20:11;1.90;;;1.00;;
15996;SDS011;8103;51.340;12.326;2023-02-04T04:22:39;1.80;;;1.17;;
15996;SDS011;8103;51.340;12.326;2023-02-04T04:25:06;1.60;;;1.27;;
15996;SDS011;8103;51.340;12.326;2023-02-04T04:27:34;1.70;;;0.85;;
15996;SDS011;8103;51.340;12.326;2023-02-04T04:30:01;1.50;;;1.10;;
15996;SDS011;8103;51.340;12.326;2023-02-04T04:32:29;2.17;;;1.20;;
15996;SDS011;8103;51.340;12.326;2023-02-04T04:34:57;3.40;;;1.05;;
15996;SDS011;8103;51.340;12.326;2023-02-04T04:37:24;2.42;;;1.10;;
15996;SDS011;8103;51.340;12.326;2023-02-04T04:39:51;1.45;;;1.10;;
15996;SDS011;8103;51.340;12.326;2023-02-04T04:42:17;1.67;;;1.17;;
15996;SDS011;8103;51.340;12.326;2023-02-04T04:44:44;0.98;;;0.75;;
15996;SDS011;8103;51.340;12.326;2023-02-04T04:47:11;2.05;;;1.48;;
15996;SDS011;8103;51.340;12.326;2023-02-04T04:49:38;3.17;;;1.10;;
15996;SDS011;8103;51.340;12.326;2023-02-04T04:52:05;1.20;;;0.85;;
15996;SDS011;8103;51.340;12.326;2023-02-04T04:54:32;1.65;;;1.10;;
15996;SDS011;8103;51.340;12.326;2023-02-04T04:56:59;3.50;;;1.08;;
15996;SDS011;8103;51.340;12.326;2023-02-04T04:59:26;2.65;;;1.27;;
15996;SDS011;8103;51.340;12.326;2023-02-04T05:01:53;2.50;;;1.55;;
15996;SDS011;8103;51.340;12.326;2023-02-04T05:04:20;1.73;;;1.10;;
15996;SDS011;8103;51.340;12.326;2023-02-04T05:06:50;1.67;;;1.20;;
15996;SDS011;8103;51.340;12.326;2023-02-04T05:09:17;2.13;;;1.25;;
15996;SDS011;8103;51.340;12.326;2023-02-04T05:11:44;3.67;;;1.10;;
15996;SDS011;8103;51.340;12.326;2023-02-04T05:14:13;2.85;;;1.40;;
15996;SDS011;8103;51.340;12.326;2023-02-04T05:16:39;2.47;;;1.15;;
15996;SDS011;8103;51.340;12.326;2023-02-04T05:19:07;1.33;;;1.10;;
15996;SDS011;8103;51.340;12.326;2023-02-04T05:21:33;2.63;;;1.20;;
15996;SDS011;8103;51.340;12.326;2023-02-04T05:24:00;3.28;;;1.13;;
15996;SDS011;8103;51.340;12.326;2023-02-04T05:26:27;2.67;;;1.38;;
15996;SDS011;8103;51.340;12.326;2023-02-04T05:29:03;1.70;;;0.95;;
15996;SDS011;8103;51.340;12.326;2023-02-04T05:31:31;2.97;;;0.90;;
15996;SDS011;8103;51.340;12.326;2023-02-04T05:34:00;1.58;;;0.80;;
15996;SDS011;8103;51.340;12.326;2023-02-04T05:36:28;1.50;;;1.10;;
15996;SDS011;8103;51.340;12.326;2023-02-04T05:38:55;1.27;;;0.80;;
15996;SDS011;8103;51.340;12.326;2023-02-04T05:41:22;2.45;;;0.88;;
15996;SDS011;8103;51.340;12.326;2023-02-04T05:43:49;3.08;;;1.20;;
15996;SDS011;8103;51.340;12.326;2023-02-04T05:46:16;1.27;;;0.90;;
15996;SDS011;8103;51.340;12.326;2023-02-04T05:48:43;1.98;;;0.82;;
15996;SDS011;8103;51.340;12.326;2023-02-04T05:51:10;1.27;;;0.88;;
15996;SDS011;8103;51.340;12.326;2023-02-04T05:53:37;0.95;;;0.80;;
15996;SDS011;8103;51.340;12.326;2023-02-04T05:56:04;2.40;;;1.15;;
15996;SDS011;8103;51.340;12.326;2023-02-04T05:58:31;3.17;;;1.48;;
15996;SDS011;8103;51.340;12.326;2023-02-04T06:01:01;0.95;;;0.60;;
15996;SDS011;8103;51.340;12.326;2023-02-04T06:03:29;1.90;;;1.45;;
15996;SDS011;8103;51.340;12.326;2023-02-04T06:05:58;1.33;;;1.23;;
15996;SDS011;8103;51.340;12.326;2023-02-04T06:08:25;3.10;;;1.20;;
15996;SDS011;8103;51.340;12.326;2023-02-04T06:10:52;1.70;;;0.77;;
15996;SDS011;8103;51.340;12.326;2023-02-04T06:13:18;2.47;;;0.70;;
15996;SDS011;8103;51.340;12.326;2023-02-04T06:15:45;1.25;;;0.60;;
15996;SDS011;8103;51.340;12.326;2023-02-04T06:18:12;0.93;;;0.60;;
15996;SDS011;8103;51.340;12.326;2023-02-04T06:20:39;1.45;;;0.82;;
15996;SDS011;8103;51.340;12.326;2023-02-04T06:23:11;3.50;;;1.10;;
15996;SDS011;8103;51.340;12.326;2023-02-04T06:25:38;1.70;;;1.10;;
15996;SDS011;8103;51.340;12.326;2023-02-04T06:28:05;3.00;;;0.93;;
15996;SDS011;8103;51.340;12.326;2023-02-04T06:34:38;2.65;;;1.15;;
15996;SDS011;8103;51.340;12.326;2023-02-04T06:37:06;1.75;;;0.88;;
15996;SDS011;8103;51.340;12.326;2023-02-04T06:39:33;2.15;;;1.00;;
15996;SDS011;8103;51.340;12.326;2023-02-04T06:42:00;2.33;;;1.05;;
15996;SDS011;8103;51.340;12.326;2023-02-04T06:44:27;3.55;;;1.17;;
15996;SDS011;8103;51.340;12.326;2023-02-04T06:46:54;1.95;;;0.95;;
15996;SDS011;8103;51.340;12.326;2023-02-04T06:49:21;1.67;;;0.88;;
15996;SDS011;8103;51.340;12.326;2023-02-04T06:51:51;1.67;;;1.10;;
15996;SDS011;8103;51.340;12.326;2023-02-04T06:54:18;4.07;;;1.30;;
15996;SDS011;8103;51.340;12.326;2023-02-04T06:56:45;2.00;;;1.13;;
15996;SDS011;8103;51.340;12.326;2023-02-04T06:59:12;1.27;;;0.90;;
15996;SDS011;8103;51.340;12.326;2023-02-04T07:01:38;2.10;;;1.38;;
15996;SDS011;8103;51.340;12.326;2023-02-04T07:04:05;2.42;;;1.58;;
15996;SDS011;8103;51.340;12.326;2023-02-04T07:06:32;1.85;;;1.40;;
15996;SDS011;8103;51.340;12.326;2023-02-04T07:08:59;1.58;;;1.00;;
15996;SDS011;8103;51.340;12.326;2023-02-04T07:11:26;4.93;;;1.48;;
15996;SDS011;8103;51.340;12.326;2023-02-04T07:13:53;2.47;;;1.52;;
15996;SDS011;8103;51.340;12.326;2023-02-04T07:16:20;1.98;;;1.30;;
15996;SDS011;8103;51.340;12.326;2023-02-04T07:18:46;5.57;;;1.98;;
15996;SDS011;8103;51.340;12.326;2023-02-04T07:21:13;2.55;;;1.52;;
15996;SDS011;8103;51.340;12.326;2023-02-04T07:23:40;3.25;;;1.60;;
15996;SDS011;8103;51.340;12.326;2023-02-04T07:26:07;1.50;;;1.40;;
15996;SDS011;8103;51.340;12.326;2023-02-04T07:28:34;1.73;;;1.63;;
15996;SDS011;8103;51.340;12.326;2023-02-04T07:31:02;2.45;;;1.33;;
15996;SDS011;8103;51.340;12.326;2023-02-04T07:33:29;2.03;;;1.25;;
15996;SDS011;8103;51.340;12.326;2023-02-04T07:35:55;2.22;;;1.35;;
15996;SDS011;8103;51.340;12.326;2023-02-04T07:38:23;3.00;;;1.30;;
15996;SDS011;8103;51.340;12.326;2023-02-04T07:40:50;1.83;;;1.10;;
15996;SDS011;8103;51.340;12.326;2023-02-04T07:43:17;2.65;;;1.52;;
15996;SDS011;8103;51.340;12.326;2023-02-04T07:45:44;1.85;;;1.20;;
15996;SDS011;8103;51.340;12.326;2023-02-04T07:48:11;2.85;;;1.42;;
15996;SDS011;8103;51.340;12.326;2023-02-04T07:50:37;2.03;;;1.70;;
15996;SDS011;8103;51.340;12.326;2023-02-04T07:53:04;1.08;;;0.98;;
15996;SDS011;8103;51.340;12.326;2023-02-04T07:55:31;3.38;;;1.20;;
15996;SDS011;8103;51.340;12.326;2023-02-04T07:57:58;1.75;;;1.27;;
15996;SDS011;8103;51.340;12.326;2023-02-04T08:00:25;5.40;;;1.48;;
15996;SDS011;8103;51.340;12.326;2023-02-04T08:02:52;2.58;;;2.38;;
15996;SDS011;8103;51.340;12.326;2023-02-04T08:05:19;2.35;;;1.50;;
15996;SDS011;8103;51.340;12.326;2023-02-04T08:07:46;3.00;;;1.60;;
15996;SDS011;8103;51.340;12.326;2023-02-04T08:10:12;2.72;;;1.15;;
15996;SDS011;8103;51.340;12.326;2023-02-04T08:12:40;2.40;;;1.42;;
15996;SDS011;8103;51.340;12.326;2023-02-04T08:15:06;2.22;;;1.60;;
15996;SDS011;8103;51.340;12.326;2023-02-04T08:21:33;3.25;;;1.23;;
15996;SDS011;8103;51.340;12.326;2023-02-04T08:24:01;1.45;;;1.13;;
15996;SDS011;8103;51.340;12.326;2023-02-04T08:26:28;6.18;;;1.55;;
15996;SDS011;8103;51.340;12.326;2023-02-04T08:28:55;3.72;;;2.30;;
15996;SDS011;8103;51.340;12.326;2023-02-04T08:31:21;6.28;;;1.25;;
15996;SDS011;8103;51.340;12.326;2023-02-04T08:33:48;2.75;;;1.17;;
15996;SDS011;8103;51.340;12.326;2023-02-04T08:36:15;2.58;;;1.17;;
15996;SDS011;8103;51.340;12.326;2023-02-04T08:38:42;4.78;;;1.27;;
15996;SDS011;8103;51.340;12.326;2023-02-04T08:41:09;4.85;;;1.45;;
15996;SDS011;8103;51.340;12.326;2023-02-04T08:43:36;4.57;;;1.38;;
15996;SDS011;8103;51.340;12.326;2023-02-04T08:46:03;1.92;;;0.98;;
15996;SDS011;8103;51.340;12.326;2023-02-04T08:48:30;3.38;;;1.55;;
15996;SDS011;8103;51.340;12.326;2023-02-04T08:50:58;4.00;;;1.17;;
15996;SDS011;8103;51.340;12.326;2023-02-04T08:53:24;1.60;;;1.10;;
15996;SDS011;8103;51.340;12.326;2023-02-04T08:55:51;3.08;;;1.35;;
15996;SDS011;8103;51.340;12.326;2023-02-04T08:58:18;9.45;;;2.03;;
15996;SDS011;8103;51.340;12.326;2023-02-04T09:00:45;2.95;;;1.42;;
15996;SDS011;8103;51.340;12.326;2023-02-04T09:03:12;2.55;;;1.20;;
15996;SDS011;8103;51.340;12.326;2023-02-04T09:05:39;1.70;;;1.17;;
15996;SDS011;8103;51.340;12.326;2023-02-04T09:08:06;3.70;;;1.92;;
15996;SDS011;8103;51.340;12.326;2023-02-04T09:10:32;3.03;;;1.20;;
15996;SDS011;8103;51.340;12.326;2023-02-04T09:13:00;3.40;;;1.55;;
15996;SDS011;8103;51.340;12.326;2023-02-04T09:15:27;1.80;;;1.05;;
15996;SDS011;8103;51.340;12.326;2023-02-04T09:17:54;1.17;;;0.80;;
15996;SDS011;8103;51.340;12.326;2023-02-04T09:20:29;5.93;;;1.00;;
15996;SDS011;8103;51.340;12.326;2023-02-04T09:22:56;1.67;;;0.90;;
15996;SDS011;8103;51.340;12.326;2023-02-04T09:25:23;4.10;;;1.17;;
15996;SDS011;8103;51.340;12.326;2023-02-04T09:27:50;1.48;;;1.20;;
15996;SDS011;8103;51.340;12.326;2023-02-04T09:30:17;2.42;;;1.38;;
15996;SDS011;8103;51.340;12.326;2023-02-04T09:32:44;1.75;;;1.02;;
15996;SDS011;8103;51.340;12.326;2023-02-04T09:35:11;2.67;;;0.88;;
15996;SDS011;8103;51.340;12.326;2023-02-04T09:37:38;3.80;;;1.25;;
15996;SDS011;8103;51.340;12.326;2023-02-04T09:40:04;5.90;;;1.13;;
15996;SDS011;8103;51.340;12.326;2023-02-04T09:42:32;3.67;;;1.10;;
15996;SDS011;8103;51.340;12.326;2023-02-04T09:45:00;2.03;;;1.35;;
15996;SDS011;8103;51.340;12.326;2023-02-04T09:47:28;2.10;;;1.45;;
15996;SDS011;8103;51.340;12.326;2023-02-04T09:49:56;1.48;;;1.00;;
15996;SDS011;8103;51.340;12.326;2023-02-04T09:52:23;5.85;;;1.83;;
15996;SDS011;8103;51.340;12.326;2023-02-04T09:54:52;2.17;;;0.95;;
15996;SDS011;8103;51.340;12.326;2023-02-04T09:57:19;4.32;;;1.20;;
15996;SDS011;8103;51.340;12.326;2023-02-04T09:59:46;4.38;;;1.23;;
15996;SDS011;8103;51.340;12.326;2023-02-04T10:02:20;3.42;;;1.23;;
15996;SDS011;8103;51.340;12.326;2023-02-04T10:04:50;4.30;;;1.30;;
15996;SDS011;8103;51.340;12.326;2023-02-04T10:07:23;1.95;;;1.40;;
15996;SDS011;8103;51.340;12.326;2023-02-04T10:09:52;3.97;;;2.15;;
15996;SDS011;8103;51.340;12.326;2023-02-04T10:12:20;1.80;;;1.20;;
15996;SDS011;8103;51.340;12.326;2023-02-04T10:14:48;2.15;;;1.40;;
15996;SDS011;8103;51.340;12.326;2023-02-04T10:17:17;2.10;;;1.13;;
15996;SDS011;8103;51.340;12.326;2023-02-04T10:19:47;4.13;;;1.70;;
15996;SDS011;8103;51.340;12.326;2023-02-04T10:22:15;1.75;;;1.10;;
15996;SDS011;8103;51.340;12.326;2023-02-04T10:24:47;4.32;;;1.70;;
15996;SDS011;8103;51.340;12.326;2023-02-04T10:27:14;1.73;;;1.08;;
15996;SDS011;8103;51.340;12.326;2023-02-04T10:29:41;6.65;;;1.55;;
15996;SDS011;8103;51.340;12.326;2023-02-04T10:32:25;3.10;;;1.48;;
15996;SDS011;8103;51.340;12.326;2023-02-04T10:34:56;2.85;;;1.40;;
15996;SDS011;8103;51.340;12.326;2023-02-04T10:37:28;1.90;;;1.20;;
15996;SDS011;8103;51.340;12.326;2023-02-04T10:39:56;3.67;;;1.30;;
15996;SDS011;8103;51.340;12.326;2023-02-04T10:42:24;2.40;;;1.27;;
15996;SDS011;8103;51.340;12.326;2023-02-04T10:44:54;2.17;;;1.33;;
15996;SDS011;8103;51.340;12.326;2023-02-04T10:47:22;2.00;;;1.10;;
15996;SDS011;8103;51.340;12.326;2023-02-04T10:50:00;1.88;;;1.13;;
15996;SDS011;8103;51.340;12.326;2023-02-04T10:52:43;3.50;;;1.13;;
15996;SDS011;8103;51.340;12.326;2023-02-04T10:55:17;3.08;;;1.38;;
15996;SDS011;8103;51.340;12.326;2023-02-04T10:57:48;2.65;;;1.10;;
15996;SDS011;8103;51.340;12.326;2023-02-04T11:00:18;2.72;;;1.10;;
15996;SDS011;8103;51.340;12.326;2023-02-04T11:02:59;16.33;;;3.75;;
15996;SDS011;8103;51.340;12.326;2023-02-04T11:05:35;4.93;;;1.30;;
15996;SDS011;8103;51.340;12.326;2023-02-04T11:08:03;5.35;;;1.75;;
15996;SDS011;8103;51.340;12.326;2023-02-04T11:10:50;4.57;;;1.45;;
15996;SDS011;8103;51.340;12.326;2023-02-04T11:13:38;2.50;;;1.25;;
15996;SDS011;8103;51.340;12.326;2023-02-04T11:16:24;4.72;;;1.73;;
15996;SDS011;8103;51.340;12.326;2023-02-04T11:26:45;4.47;;;1.73;;
15996;SDS011;8103;51.340;12.326;2023-02-04T11:29:25;3.13;;;1.20;;
15996;SDS011;8103;51.340;12.326;2023-02-04T11:32:06;3.10;;;1.20;;
15996;SDS011;8103;51.340;12.326;2023-02-04T11:35:23;1.70;;;1.08;;
15996;SDS011;8103;51.340;12.326;2023-02-04T11:37:57;2.55;;;0.93;;
15996;SDS011;8103;51.340;12.326;2023-02-04T11:43:02;3.55;;;0.90;;
15996;SDS011;8103;51.340;12.326;2023-02-04T11:45:41;3.72;;;1.17;;
15996;SDS011;8103;51.340;12.326;2023-02-04T11:48:10;3.75;;;2.00;;
15996;SDS011;8103;51.340;12.326;2023-02-04T11:50:42;1.85;;;1.10;;
15996;SDS011;8103;51.340;12.326;2023-02-04T11:53:23;7.68;;;1.48;;
15996;SDS011;8103;51.340;12.326;2023-02-04T11:55:55;4.70;;;1.33;;
15996;SDS011;8103;51.340;12.326;2023-02-04T11:58:23;1.98;;;1.17;;
15996;SDS011;8103;51.340;12.326;2023-02-04T12:00:51;1.58;;;1.00;;
15996;SDS011;8103;51.340;12.326;2023-02-04T12:03:23;3.25;;;1.13;;
15996;SDS011;8103;51.340;12.326;2023-02-04T12:05:52;3.97;;;1.50;;
15996;SDS011;8103;51.340;12.326;2023-02-04T12:08:31;3.15;;;1.35;;
15996;SDS011;8103;51.340;12.326;2023-02-04T12:11:03;3.88;;;1.40;;
15996;SDS011;8103;51.340;12.326;2023-02-04T12:13:52;4.25;;;1.85;;
15996;SDS011;8103;51.340;12.326;2023-02-04T12:16:22;4.57;;;1.63;;
15996;SDS011;8103;51.340;12.326;2023-02-04T12:18:50;9.13;;;3.65;;
15996;SDS011;8103;51.340;12.326;2023-02-04T12:21:17;4.30;;;2.65;;
15996;SDS011;8103;51.340;12.326;2023-02-04T12:23:44;3.38;;;1.85;;
15996;SDS011;8103;51.340;12.326;2023-02-04T12:26:11;4.95;;;3.05;;
15996;SDS011;8103;51.340;12.326;2023-02-04T12:28:38;10.02;;;5.80;;
15996;SDS011;8103;51.340;12.326;2023-02-04T12:31:05;7.32;;;3.20;;
15996;SDS011;8103;51.340;12.326;2023-02-04T12:33:33;5.28;;;3.10;;
15996;SDS011;8103;51.340;12.326;2023-02-04T12:36:00;5.15;;;2.20;;
15996;SDS011;8103;51.340;12.326;2023-02-04T12:38:27;10.88;;;5.75;;
15996;SDS011;8103;51.340;12.326;2023-02-04T12:40:54;8.63;;;2.70;;
15996;SDS011;8103;51.340;12.326;2023-02-04T12:43:21;2.88;;;1.90;;
15996;SDS011;8103;51.340;12.326;2023-02-04T12:45:48;5.57;;;2.22;;
15996;SDS011;8103;51.340;12.326;2023-02-04T12:48:15;7.10;;;2.90;;
15996;SDS011;8103;51.340;12.326;2023-02-04T12:50:42;6.55;;;2.17;;
15996;SDS011;8103;51.340;12.326;2023-02-04T12:53:09;2.75;;;1.85;;
15996;SDS011;8103;51.340;12.326;2023-02-04T12:55:36;4.18;;;3.13;;
15996;SDS011;8103;51.340;12.326;2023-02-04T12:58:03;6.20;;;3.03;;
15996;SDS011;8103;51.340;12.326;2023-02-04T13:00:29;4.75;;;2.25;;
15996;SDS011;8103;51.340;12.326;2023-02-04T13:02:56;5.25;;;2.00;;
15996;SDS011;8103;51.340;12.326;2023-02-04T13:05:26;3.30;;;2.58;;
15996;SDS011;8103;51.340;12.326;2023-02-04T13:07:53;5.70;;;2.95;;
15996;SDS011;8103;51.340;12.326;2023-02-04T13:10:20;3.65;;;2.15;;
15996;SDS011;8103;51.340;12.326;2023-02-04T13:12:49;3.30;;;2.47;;
15996;SDS011;8103;51.340;12.326;2023-02-04T13:15:16;2.47;;;1.88;;
15996;SDS011;8103;51.340;12.326;2023-02-04T13:17:43;4.25;;;1.65;;
15996;SDS011;8103;51.340;12.326;2023-02-04T13:20:10;5.15;;;1.60;;
15996;SDS011;8103;51.340;12.326;2023-02-04T13:22:38;6.20;;;2.38;;
15996;SDS011;8103;51.340;12.326;2023-02-04T13:25:05;3.75;;;1.70;;
15996;SDS011;8103;51.340;12.326;2023-02-04T13:27:32;4.20;;;1.50;;
15996;SDS011;8103;51.340;12.326;2023-02-04T13:29:59;5.13;;;2.05;;
15996;SDS011;8103;51.340;12.326;2023-02-04T13:32:26;1.52;;;1.20;;
15996;SDS011;8103;51.340;12.326;2023-02-04T13:34:53;4.20;;;1.77;;
15996;SDS011;8103;51.340;12.326;2023-02-04T13:37:20;2.70;;;1.17;;
15996;SDS011;8103;51.340;12.326;2023-02-04T13:39:47;7.80;;;2.45;;
15996;SDS011;8103;51.340;12.326;2023-02-04T13:42:14;2.95;;;1.73;;
15996;SDS011;8103;51.340;12.326;2023-02-04T13:44:41;5.28;;;2.03;;
15996;SDS011;8103;51.340;12.326;2023-02-04T13:47:09;2.42;;;1.42;;
15996;SDS011;8103;51.340;12.326;2023-02-04T13:49:36;2.50;;;1.48;;
15996;SDS011;8103;51.340;12.326;2023-02-04T13:52:02;2.50;;;1.20;;
15996;SDS011;8103;51.340;12.326;2023-02-04T13:54:29;4.65;;;1.10;;
15996;SDS011;8103;51.340;12.326;2023-02-04T13:56:56;1.10;;;0.95;;
15996;SDS011;8103;51.340;12.326;2023-02-04T13:59:23;2.80;;;1.20;;
15996;SDS011;8103;51.340;12.326;2023-02-04T14:01:50;3.03;;;1.02;;
15996;SDS011;8103;51.340;12.326;2023-02-04T14:08:16;4.53;;;1.55;;
15996;SDS011;8103;51.340;12.326;2023-02-04T14:10:44;3.85;;;1.35;;
15996;SDS011;8103;51.340;12.326;2023-02-04T14:17:17;2.67;;;1.40;;
15996;SDS011;8103;51.340;12.326;2023-02-04T14:19:44;4.03;;;1.42;;
15996;SDS011;8103;51.340;12.326;2023-02-04T14:26:17;3.67;;;1.02;;
15996;SDS011;8103;51.340;12.326;2023-02-04T14:28:44;1.10;;;0.85;;
15996;SDS011;8103;51.340;12.326;2023-02-04T14:31:11;1.50;;;0.90;;
15996;SDS011;8103;51.340;12.326;2023-02-04T14:33:38;1.85;;;0.95;;
15996;SDS011;8103;51.340;12.326;2023-02-04T14:36:05;1.70;;;1.30;;
15996;SDS011;8103;51.340;12.326;2023-02-04T14:38:32;1.60;;;1.25;;
15996;SDS011;8103;51.340;12.326;2023-02-04T14:40:59;2.25;;;1.50;;
15996;SDS011;8103;51.340;12.326;2023-02-04T14:43:26;2.60;;;1.20;;
15996;SDS011;8103;51.340;12.326;2023-02-04T14:45:53;3.10;;;1.60;;
15996;SDS011;8103;51.340;12.326;2023-02-04T14:48:21;3.35;;;1.77;;
15996;SDS011;8103;51.340;12.326;2023-02-04T14:50:47;3.53;;;1.85;;
15996;SDS011;8103;51.340;12.326;2023-02-04T14:53:14;2.78;;;1.67;;
15996;SDS011;8103;51.340;12.326;2023-02-04T14:55:41;6.03;;;3.83;;
15996;SDS011;8103;51.340;12.326;2023-02-04T14:58:08;3.88;;;2.70;;
15996;SDS011;8103;51.340;12.326;2023-02-04T15:00:37;8.65;;;7.03;;
15996;SDS011;8103;51.340;12.326;2023-02-04T15:03:03;7.30;;;5.47;;
15996;SDS011;8103;51.340;12.326;2023-02-04T15:05:30;4.65;;;2.97;;
15996;SDS011;8103;51.340;12.326;2023-02-04T15:07:57;15.30;;;11.57;;
15996;SDS011;8103;51.340;12.326;2023-02-04T15:10:24;12.40;;;8.73;;
15996;SDS011;8103;51.340;12.326;2023-02-04T15:12:55;10.68;;;9.48;;
15996;SDS011;8103;51.340;12.326;2023-02-04T15:15:24;5.10;;;4.60;;
15996;SDS011;8103;51.340;12.326;2023-02-04T15:17:50;3.00;;;1.90;;
15996;SDS011;8103;51.340;12.326;2023-02-04T15:20:17;1.52;;;1.00;;
15996;SDS011;8103;51.340;12.326;2023-02-04T15:22:44;6.93;;;2.95;;
15996;SDS011;8103;51.340;12.326;2023-02-04T15:25:17;4.05;;;2.72;;
15996;SDS011;8103;51.340;12.326;2023-02-04T15:27:44;6.50;;;3.28;;
15996;SDS011;8103;51.340;12.326;2023-02-04T15:30:11;2.22;;;2.03;;
15996;SDS011;8103;51.340;12.326;2023-02-04T15:32:39;3.53;;;2.28;;
15996;SDS011;8103;51.340;12.326;2023-02-04T15:39:38;3.67;;;2.05;;
15996;SDS011;8103;51.340;12.326;2023-02-04T15:42:05;3.63;;;1.90;;
15996;SDS011;8103;51.340;12.326;2023-02-04T15:44:33;3.08;;;1.58;;